MOP weather

Mount Pleasant Municipal Airport
Mount Pleasant, Michigan, United States

Public forecast

Using degrees Fahrenheit for public forecast. Weather courtesy of forecast.io.

METAR (pilot weather report)

Retrieved 2019/09/23 01:38 UTC (0 seconds ago):

KMOP 230138Z AUTO 20004KT 10SM RA OVC013 21/21 A2979 RMK AO2 P0001 T02110207

TAF (pilot weather forecast)

Forecast is more than 12 hours old.

Closest forecast is MBS International Airport, 29.1 nm (53.9 km) E. Retrieved 2019/09/22 00:24 UTC (1 day ago):

TAF KMBS 222323Z 2300/2324 23010KT 6SM -SHRA OVC045 TEMPO 2300/2302 4SM -RA BR OVC025 FM230200 23010KT 4SM SHRA BR VCTS OVC015CB TEMPO 2303/2307 2SM RA BR OVC007 FM230700 28010KT 4SM -SHRA BR OVC007 FM231300 28013KT P6SM VCSH OVC015 FM231600 28013G20KT P6SM BKN025 OVC040 FM231900 30015G25KT P6SM BKN040